Terminal Aerodrome Forecast
Issued by NWS Memphis, TN

Home | Current Version | Previous Version | Text Only | Print | Product List | Glossary On
Versions: 1 2 3 4 5 6 7 8 9 10 11 12 13 14 15 16 17 18 19 20 21 22 23 24 25 26 27 28 29 30 31 32 33 34 35 36 37 38
000
FTUS44 KMEG 241542 AAB
TAFMEM
TAF AMD
KMEM 241542Z 2416/2518 19013G20KT P6SM VCTS OVC015CB
     FM241900 20015G22KT P6SM VCTS OVC020CB
     FM250000 20017G23KT P6SM -TSRA OVC025CB
      TEMPO 2501/2504 1SM +TSRA BR BKN010CB
     FM250400 25020G27KT 3SM -RA BR OVC015
     FM250800 30012G18KT P6SM OVC035=

USA.gov is the U.S. government's official web portal to all federal, state and local government web resources and services.